Logs | Milos Holy, Lhota pod Radcem, CZE - JN69ut
Paging Controls
Log ID Date UTC KHz ID Location S/P ITU Region GSQ LSB USB Sec. Fmt. Power KM Miles Deg
2497607 2024-05-27 0059 311 CEL Celle DEU eu JO52ao 25 402 250 321
2497600 2024-05-27 0031 302 NIK Niksic MNE eu JN92ls 40 880 547 150
2497590 2024-05-26 2108 291 WS Grenoble / St Geoirs FRA eu JN25ni 812 504 235
2497586 2024-05-26 2103 289 HR Hericourt FRA eu JN37in 25 571 355 246
2497605 2024-05-26 0119 309 LG Satenas / Tune SWE eu JO68ik 961 597 356
2497583 2024-05-26 0112 277 CHT Chiltern ENG eu IO91ro 25 1021 635 286
2497611 2024-05-26 0053 316 EPM Epsom for Heathrow ENG eu IO91th 25 1007 626 284
2497591 2024-05-25 0103 292 CAY Caycuma TUR as KN61bm 1695 1053 115
2497614 2024-05-25 0048 317 VS Valenciennes / Denain FRA eu JO10qi 739 459 278
2497609 2024-05-25 0044 312 DAN Danilvograd For Podgorica MNE eu JN92nn 907 564 150
2497596 2024-05-25 0031 297 FR Frankfurt DEU eu JO40ib 25 359 223 276
2497606 2024-05-25 0029 310 AMN Almeria ESP eu IM86tu 1933 1201 227
2497602 2024-05-25 0019 305 OO Rtishchevo RUS eu LO12uh 2099 1304 70
2497593 2024-05-25 0018 294 VRA Vrsac SRB eu KN05pc 773 480 129
2497589 2024-05-25 0009 290 ONL Liege / Bierset BEL eu JO20sq 15 588 366 282
2497588 2024-05-25 0004 289 WR Chertovitskoye / Voronezh RUS eu KO91ou 1796 1116 72
2497584 2024-05-24 2232 282 K Kacha UKR eu KN64ss 1591 989 103
2497616 2024-05-24 2221 318 HIG Bremen DEU eu JO43kb 25 493 306 319
2497618 2024-05-24 2212 318 KLP Dubrovnik / Kolocep HRV eu JN92aq 50 859 534 155
2497619 2024-05-24 2208 318 OTR Bucuresti / Otopeni ROU eu KN34co 1106 687 116
2497617 2024-05-24 2201 318 JW Voronezh / Baltimore RUS eu KO91no 1792 1113 73
2497612 2024-05-24 2156 316 TNJ Tounj HRV eu JN75qg 520 323 165
2497610 2024-05-24 2153 316 CAL Cagliari / Elmas SAR eu JM49mf 1233 766 199
2497608 2024-05-24 2150 311 LMA Lima / Bruggen DEU eu JO31ei 25 545 339 291
2497603 2024-05-24 2140 308 MOJ Mojkovac MNE eu JN92sw 40 885 550 147
2497604 2024-05-24 2139 309 DO Dole / Tavaux FRA eu JN26px 696 433 246
2497597 2024-05-24 2127 297 PEP Prilep MKD eu KN01ri 1116 693 144
2497595 2024-05-24 2125 295 PT Skopje MKD eu KN01tv 50 1071 666 142
2497594 2024-05-24 2120 295 DC Debrecen HNG eu KN07sk 633 393 111
2497587 2024-05-24 2115 289 RI Rijeka / Krk HRV eu JN75hd 523 325 172
2497582 2024-05-24 2012 275 O UNID XUF xx
2497613 2024-05-24 1925 317 PPD Poprad / Tatry SVK eu KN09eb 489 304 97
2497599 2024-05-24 1920 300 PV Novi Sad / Cenej / Petrovaradin SRB eu JN95rd 675 419 138
2497585 2024-05-24 1900 284 GNA Gorna BUL eu KN23td 1173 729 124
2497615 2024-05-24 1658 318 AGB Augsburg DEU eu JN58lk 25 252 156 233
2497601 2024-05-24 1652 303 RTT Innsbruck / Rattenberg AUT eu JN57xk 294 182 206
2497598 2024-05-24 1648 300 KD Kbely / Praha East CZE eu JO70hd 75 47 60
2497592 2024-05-24 1643 292 NKR Neckar DEU eu JN49ii 25 364 226 263
2493618 2024-04-29 0030 363 CIG Izmir / Cigli / Kaklic TUR as KM38mm 25 1640 1019 134
2493601 2024-04-29 0015 397 OP Dublin IRL eu IO63wj 15 1421 883 293
2493597 2024-04-28 0258 520 DF Mukhrani GEO as LN21gv 2523 1568 98
2493595 2024-04-28 0243 356 SGO Sagunto ESP eu IM99vq 300 1568 974 229
2493602 2024-04-28 0238 355 ARB Ardabil IRN as LM48eh 3016 1874 101
2493596 2024-04-28 0230 347 CVT Chalons / Vatry FRA eu JN28ds 692 430 263
2493611 2024-04-28 0229 350 UK Yukhnov RUS eu KO74or 1554 966 61
2493612 2024-04-28 0215 348 ATF Aberdeen / Dyce SCT eu IO87wb 25 1317 819 313
2493619 2024-04-28 0210 690 DM Dmytrivka UKR eu KN75ml 1663 1033 98
2493587 2024-04-28 0207 344 MN Menorca BAL eu JM29cu 200 1334 829 217
2493604 2024-04-28 0200 840 KR Kaliningrad / Khrabovo KAL eu KO04iv 738 458 37
2493594 2024-04-28 0151 342.5 NWI Norwich ENG eu JO02pq 5 920 572 295
2493598 2024-04-28 0141 383 TST UNID XUU xx
2493592 2024-04-28 0132 378 WSN Weser DEU eu JO43ki 516 321 321
2493620 2024-04-28 0047 388.5 CDF Cardiff WLS eu IO81hj 10 1215 755 284
2493608 2024-04-27 2322 381 RG Rygge / Tune NOR eu JO59mh 1070 665 351
2493593 2024-04-27 2308 384 TL Aarhus DNK eu JO56hh 751 467 345
2493599 2024-04-27 2252 383 EN Debrecen HNG eu KN07um 640 398 110
2493614 2024-04-27 2247 375 GLA Gland for Geneva / Cointrain SUI eu JN36cj 674 419 238
2493588 2024-04-27 2240 360.5 MAK Mackel for Brussels Ntl BEL eu JO10rx 737 458 284
2493607 2024-04-27 2234 345 TAZ Tivat MNE eu JN92jg 50 925 575 153
2493605 2024-04-27 2222 343 KUS Kaunas / Karmelava LTU eu KO24bx 100 909 565 46
2493617 2024-04-27 2212 349 JX Vaxjo / Kronoberg SWE eu JO76jx 800 497 4
2493616 2024-04-27 2204 334 MR Maribor SVN eu JN76vi 49 414 258 157
2493589 2024-04-26 2158 340 BLK Banja Luka BIH eu JN85pc 40 589 366 151
2493603 2024-04-26 2150 371 RIV Codroipo / Rivolto (UD) ITA eu JN65lw 434 270 187
2493606 2024-04-26 2141 295 PT Skopje MKD eu KN01tv 50 1071 666 142
2493609 2024-04-26 2131 385 NWT Leczyca POL eu JO91ox 455 282 55
2493590 2024-04-26 2128 490 WAK Vakarel BUL eu KN12un 1113 691 132
2493613 2024-04-26 2117 485 IA Indija SRB eu KN05ab 60 711 442 135
2493600 2024-04-26 2055 351.5 PLA Pula HRV eu JN64vv 2000 547 340 179
2493610 2024-04-26 2048 404 BMR Baia Mare ROU eu KN17qq 746 464 104
2493615 2024-04-26 2037 391 OKR Bratislava / M.R Stefanik / North SVK eu JN88pf 2000 315 196 122
2493586 2024-04-26 2025 374 KFT Klagenfurt AUT eu JN76go 362 225 169
2493591 2024-04-26 1920 300 KD Kbely / Praha East CZE eu JO70hd 75 47 60
2486369 2024-03-25 0224 474.5 SA Darlowo POL eu JO84ek 545 339 18
2486356 2024-03-25 0120 349.5 LPL Liverpool ENG eu IO83pi 1197 744 295
2486362 2024-03-24 0226 368.5 WHI Whitegate for Hawarden ENG eu IO83qe 25 1188 738 294
2486355 2024-03-24 0205 347.5 TD Teeside ENG eu IO94in 1148 713 303
2486353 2024-03-24 0148 342.5 NWI Norwich ENG eu JO02pq 5 920 572 295
2486352 2024-03-24 0135 332.5 CAM Cambridge ENG eu JO02cf 980 609 291
2486348 2024-03-24 0114 267.5 OPW Bucuresti / Otopeni ROU eu KN24xn 1092 679 117
2486351 2024-03-23 0207 328.5 EGT Londonderry / Eglinton NIR eu IO65kb 1521 945 300
2486357 2024-03-23 0129 351.5 PLA Pula HRV eu JN64vv 2000 547 340 179
2486370 2024-03-23 0110 514.5 LA Namest Nad Oslavou CZE eu JN89cd 195 121 111
2486347 2024-03-22 2227 231 R Malacky - Kuchyna SVK eu JN88nj 294 183 121
2486346 2024-03-22 2203 230 WZ Kamenka RUS eu KO85mf 1680 1044 60
2486365 2024-03-22 2152 388.5 CDF Cardiff WLS eu IO81hj 10 1215 755 284
2486364 2024-03-22 2137 386.5 SLV Spa / La Sauveniere BEL eu JO20wl 15 563 350 280
2486363 2024-03-22 2124 370.5 LB Angelholm / Barkakra SWE eu JO66ji 730 454 355
2486361 2024-03-22 2117 367.5 OX Oxford / Kidlington ENG eu IO91it 1075 668 287
2486360 2024-03-22 2100 360.5 MAK Mackel for Brussels Ntl BEL eu JO10rx 737 458 284
2486358 2024-03-22 2055 352.5 DD Oostende BEL eu JO11ke 100 781 485 285
2486350 2024-03-22 2040 300.5 LW Koln / Bonn DEU eu JO30pv 25 471 292 287
2486354 2024-03-22 2033 345.5 CF Caslav / Chotusice / Centograf CZE eu JN79rv 126 78 85
2486359 2024-03-22 2031 357.5 KG Sarajevo / Butmir / Kobiljaca BIH eu JN93cv 741 461 150
2486349 2024-03-22 2015 284.5 DY Dusseldorf DEU eu JO31if 25 519 323 290
2486368 2024-03-22 2000 406.5 BOT Bottrop DEU eu JO31mn 25 508 316 295
2486367 2024-03-22 1955 400.5 EJ Esbjerg DNK eu JO45in 722 449 334
2486366 2024-03-22 1953 400.5 COD Codogno (LO) ITA eu JN45sf 598 371 213
2478465 2024-02-26 0140 392 KF Keflavik ISL eu HP83px 2657 1651 319
2478489 2024-02-25 2300 398 MT St Nazaire / Montoir FRA eu IN87xi 50 1188 738 262
2478487 2024-02-25 2254 397 ZR Beziers / Vias FRA eu JN13ph 1074 667 231
2478466 2024-02-25 2141 393 AB Hagfors SWE eu JO69tw 1126 699 359
2478491 2024-02-25 0259 399 FM Trollhattan / Vanersborg SWE eu JO68di 954 593 355
2478475 2024-02-25 0227 395 FOY Foynes for Shannon IRL eu IO52jn 50 1619 1006 289
2478468 2024-02-25 0202 393 EMW East Midlands ENG eu IO92gt 15 1103 685 293
2478456 2024-02-25 0145 389 BX La Palma CNR af IL18co 150 3549 2205 240
2478464 2024-02-25 0135 391.5 EAS Southampton / Eastleigh ENG eu IO90hw 1075 668 282
2478446 2024-02-25 0115 386 BZ Brize Norton ENG eu IO91er 50 1097 682 287
2478478 2024-02-25 0111 395 TBS Tabas IRN as LM83kp 3937 2446 100
2478462 2024-02-24 2241 391 BV Beauvais / Tille FRA eu JN19al 20 840 522 271
2478449 2024-02-24 2224 387 AV Asturias / Aviles ESP eu IN73am 20 1649 1025 252
2478451 2024-02-24 2215 387 MA Levashovo RUS eu KP50cc 1547 961 36
2478485 2024-02-24 2208 397 LZD Lydd ENG eu JO00lx 12 912 567 283
2478481 2024-02-24 2159 397 BLB Blois / Le Breuil FRA eu JN07oq 945 587 260
2478476 2024-02-24 0218 395 LAY Islay SCT eu IO65vq 1484 922 303
2478460 2024-02-24 0135 390 OV Nafoora M4 LBY af KL09sf 2382 1480 160
2478450 2024-02-24 0112 387 CML Clonmel IRL eu IO62gk 50 1500 932 289
2478492 2024-02-23 2229 399 KMN Burgas / Kamenar BUL eu KN32tp 1331 827 121
2478490 2024-02-23 2224 398 PEO Stockhlom / Skavsta / Peola SWE eu JO88mt 1023 636 10
2478488 2024-02-23 2218 398 LRN Lorquin / Xouaxange FRA eu JN38lq 505 314 258
2478486 2024-02-23 2159 397 OP Dublin IRL eu IO63wj 15 1421 883 293
2478484 2024-02-23 2154 397 LU Banja Luka BIH eu JN84px 40 601 373 152
2478483 2024-02-23 2138 397 LM Borlange / Rommehed / Falun SWE eu JP70tj 1183 735 5
2478482 2024-02-23 2130 397 CV Dubrovnik / Cavtat HRV eu JN92co 873 542 154
2478480 2024-02-23 2128 396 YG Rygge / Enge NOR eu JO59ji 1077 669 351
2478479 2024-02-23 2120 396 RON Ronchi dei Legionari (GO) ITA eu JN65qt 25 445 277 183
2478477 2024-02-23 2110 395 OB Marseille / Provence FRA eu JN23tf 25 957 595 223
2478474 2024-02-23 2105 395 B Bilbao ESP eu IN83li 1463 909 247
2478473 2024-02-23 2100 394 NV Nevers / Fourchambault FRA eu JN16ow 838 521 251
2478472 2024-02-23 2042 394 LYE Lubeck / Blanckensee DEU eu JO53it 490 305 336
2478471 2024-02-23 2040 394 IZA Ibiza BAL eu JM08rv 200 1552 964 223
2478470 2024-02-23 2035 394 DND Dundee SCT eu IO86kk 25 1338 831 309
2478469 2024-02-23 2024 393 TAT Molde / Aro / Tautra NOR eu JP32kq 1490 926 346
2478467 2024-02-23 2022 393 BD Bordeaux / Merignac FRA eu IN94rw 1199 745 248
2478463 2024-02-23 2015 391 OKR Bratislava / M.R Stefanik / North SVK eu JN88pf 2000 315 196 122
2478458 2024-02-23 2004 389 PX Perigueux / Bassillac FRA eu JN05ke 25 1091 678 246
2478461 2024-02-23 1950 390 VAL Valjevo SRB eu JN94wh 769 478 140
2478459 2024-02-23 1945 389 ZRZ Zaragoza ESP eu IN91jr 300 1460 907 237
2478457 2024-02-23 1930 389 HN Orsta-Volda / Hovden NOR eu JP32ad 1450 901 343
2478455 2024-02-23 1927 388.5 CDF Cardiff WLS eu IO81hj 10 1215 755 284
2478454 2024-02-23 1920 388 LOU Metz / Nancy-Lorraine - Louvigny FRA eu JN38cx 550 342 263
2478453 2024-02-23 1915 388 COR Corner for Bromma SWE eu JO89rg 1079 670 11
2478452 2024-02-23 1912 388 BR Lyon / Bron FRA eu JN25lo 804 499 237
2478448 2024-02-23 1910 387 AD Kraljevo SRB eu KN03hs 853 530 139
2478447 2024-02-23 1904 386.5 SLV Spa / La Sauveniere BEL eu JO20wl 15 563 350 280
2478444 2024-02-23 1855 385 BO Zadar / Bokanjac HRV eu JN74pe 40 637 396 168
2478443 2024-02-23 1854 385 AVN Vilnius LTU eu KO24pp 953 592 51
2478445 2024-02-23 1853 385 NWT Leczyca POL eu JO91ox 455 282 55
2455916 2024-01-01 0145 368.5 WHI Whitegate for Hawarden ENG eu IO83qe 25 1188 738 294
2455972 2023-12-31 2200 465 SIN Sinop TUR as KN72ma 1855 1152 109
2455971 2023-12-31 2125 363 CIG Izmir / Cigli / Kaklic TUR as KM38mm 25 1640 1019 134
2455949 2023-12-31 0349 394 DND Dundee SCT eu IO86kk 25 1338 831 309
2455948 2023-12-31 0322 355 PIK Prestwick SCT eu IO75rm 1379 857 304
2455930 2023-12-30 0318 387 CML Clonmel IRL eu IO62gk 50 1500 932 289
2455917 2023-12-30 0304 386 BZ Brize Norton ENG eu IO91er 50 1097 682 287
2455947 2023-12-30 0255 341 EDN Edinburgh SCT eu IO85ix 1325 823 307
2455912 2023-12-30 0248 342.5 NWI Norwich ENG eu JO02pq 5 920 572 295
2455913 2023-12-30 0223 347 NQY Newquay ENG eu IO70mk 50 1329 826 280
2455911 2023-12-30 0221 339 BIA Bournemouth ENG eu IO90bs 40 1110 690 281
2455873 2023-12-29 2354 313 KI Klagenfurt AUT eu JN76ep 356 221 171
2455909 2023-12-29 2345 277 CHT Chiltern ENG eu IO91ro 25 1021 635 286
2455936 2023-12-28 2355 450 PAD Parsabade / Moghan IRN as LM39xn 2906 1805 99
2455932 2023-12-28 2300 260 RAF Rafsanjan IRN as LM80ah 4127 2564 105
2455935 2023-12-28 2258 370 UMH Uromiyeh IRN as LM27mp 2829 1758 106
2455934 2023-12-28 2252 363 SHD Maragheh / Sahand IRN as LM37bi 2924 1817 105
2455883 2023-12-28 2247 312 BOZ Bozhurishte BUL eu KN12os 1069 664 133
2455960 2023-12-28 2232 295 F Sliac / Hajniky SVK eu JN98no 416 258 106
2455879 2023-12-28 2230 418 ZW Zeltweg AUT eu JN77je 50 303 188 164
2455924 2023-12-28 2228 400 BC Bekescsaba HNG eu KN06nq 649 403 119
2455923 2023-12-28 2215 383 EN Debrecen HNG eu KN07um 640 398 110
2455895 2023-12-28 2200 438 K Praha Kbely / Kalda CZE eu JO70gd 70 44 57
2455888 2023-12-28 0305 537 PD Plovdiv BUL eu KN22kb 1217 756 130
2455887 2023-12-28 0258 490 WAK Vakarel BUL eu KN12un 1113 691 132
2455886 2023-12-28 0251 450 PDV Plovdiv BUL eu KN22ka 1221 759 130
2455915 2023-12-28 0242 367.5 OX Oxford / Kidlington ENG eu IO91it 1075 668 287
2455914 2023-12-28 0235 352 WOD Woodley ENG eu IO91nk 1043 648 285
2455910 2023-12-28 0232 332.5 CAM Cambridge ENG eu JO02cf 980 609 291
2455931 2023-12-28 0220 395 FOY Foynes for Shannon IRL eu IO52jn 50 1619 1006 289
2455898 2023-12-28 0213 888 P Pardubice CZE eu JO70va 151 94 80
2455929 2023-12-28 0208 378 KLY Killiney for Dublin IRL eu IO63wg 1419 882 293
2455897 2023-12-28 0205 534 R Ostrava / Mosnov / Rada CZE eu JN99bq 318 197 90
2455902 2023-12-27 2245 378 WSN Weser DEU eu JO43ki 516 321 321
2455969 2023-12-27 2215 571 P Presov / Kapusany SVK eu KN09qb 560 348 95
2455963 2023-12-27 2155 404 ZLA Zilina SVK eu JN99ge 2000 356 221 99
2455896 2023-12-27 2150 514.5 LA Namest Nad Oslavou CZE eu JN89cd 195 121 111
2455968 2023-12-27 2147 508 Z Zilina / Hlinik SVK eu JN99hf 361 224 98
2455950 2023-12-26 2247 316 JA Beograd SRB eu KN04fr 760 472 135
2455933 2023-12-26 2247 355 ARB Ardabil IRN as LM48eh 3016 1874 101
2455921 2023-12-26 2228 326 C Debrecen HNG eu KN07tl 636 395 111
2455928 2023-12-26 2227 373 NW Maastricht / Beek HOL eu JO21wa 15 571 355 286
2455927 2023-12-26 2220 456 SEG Szeged HNG eu KN06bg 618 384 127
2455925 2023-12-26 2216 412 PP Pecs / Pogany HNG eu JN96ca 538 335 139
2455920 2023-12-26 2210 295 DC Debrecen HNG eu KN07sk 633 393 111
2455967 2023-12-26 2156 438 PE Poprad / Tatry East SVK eu KN09fb 495 308 97
2455926 2023-12-26 2154 436 SME Sarmellek / Balaton HNG eu JN86op 437 272 142
2455894 2023-12-26 2150 432 PK Pardubice / Prvek CZE eu JO70va 151 94 80
2455907 2023-12-26 2144 429 OBI Oberpfaffenhofen DEU eu JN58pb 263 163 223
2455908 2023-12-26 2141 431 KBA Karlsruhe / Baden Baden DEU eu JN48bt 420 261 256
2455893 2023-12-26 2140 429 B Brno / Turany / Borek CZE eu JN89id 229 142 107
2455946 2023-12-26 2136 428 TGM Targu Mures / Vidrasau ROU eu KN26dk 869 540 111
2455945 2023-12-26 2133 426 BC Bacau ROU eu KN36ll 1049 652 105
2455881 2023-12-26 2131 426 GBG Gleichenberg for Graz AUT eu JN76vv 100 359 223 153
2455966 2023-12-26 2130 425 KE Kosice SVK eu KN08oo 561 348 100
2455965 2023-12-26 2126 418 PW Poprad / Tatry West SVK eu KN09ab 465 289 97
2455944 2023-12-26 2124 418 ORA Oradea ROU eu KN07xc 678 421 113
2455880 2023-12-26 2123 420 INN Innsbruck AUT eu JN57qf 40 335 208 211
2455970 2023-12-26 2122 356 ANK Ankara / Esenboga TUR as KM69jw 1853 1151 119
2455964 2023-12-26 2120 412 FS Sliac SVK eu JN98nn 417 259 107
2455892 2023-12-26 2118 416 KUN Kunovice CZE eu JN89sc 288 179 104
2455918 2023-12-26 2116 414 BRI Bristol / Filton ENG eu IO81pj 1169 726 284
2455878 2023-12-26 2114 410 SI Salzburg AUT eu JN67lt 229 142 194
2455905 2023-12-26 2111 406.5 BOT Bottrop DEU eu JO31mn 25 508 316 295
2455906 2023-12-26 2108 407 LUP Laupheim DEU eu JN48wf 30 330 205 239
2455943 2023-12-26 2102 404 BMR Baia Mare ROU eu KN17qq 746 464 104
2455903 2023-12-26 2000 394 LYE Lubeck / Blanckensee DEU eu JO53it 490 305 336
2455955 2023-12-25 2212 380 KN Beograd / Krnjesevci SRB eu KN04bv 729 453 136
2455942 2023-12-25 2205 378 TA Timisoara / Giarmata ROU eu KN05ou 712 442 125
2455877 2023-12-25 2200 374 KFT Klagenfurt AUT eu JN76go 362 225 169
2455941 2023-12-25 2150 373 D Tirgu Mures ROU eu KN26el 873 542 111
2455940 2023-12-25 2141 370 OTL Bucuresti / Otopeni ROU eu KN34an 1098 682 117
2455954 2023-12-25 2113 355 OBR Beograd / Obrenovac SRB eu KN04bp 50 751 467 137
2455956 2023-12-25 2110 405 JST Nis / Justic SRB eu KN03tk 50 931 578 136
2455959 2023-12-25 2102 435 BR Brdjani SRB eu KN03fw 830 516 139
2455958 2023-12-25 2058 423 ZO Nis / Zitoradja SRB eu KN03ue 957 594 137
2455939 2023-12-25 2053 351 ISI Iasi ROU eu KN37sf 1057 657 100
2455884 2023-12-25 2050 350 DWN Devnya For Varna BUL eu KN33tf 1289 801 119
2455938 2023-12-25 2046 349 OPE Bucuresti / Otopeni ROU eu KN34cn 1108 689 117
2455957 2023-12-25 2042 416 POZ Beograd / Pozarevac SRB eu KN04no 40 805 500 133
2455953 2023-12-25 2040 348 TPL Topola SRB eu KN04id 823 512 137
2455937 2023-12-25 2026 338 TIM Timisoara ROU eu KN05ol 739 459 127
2455952 2023-12-25 2023 337 VRN Vranje SRB eu KN02wn 40 1021 634 139
2455922 2023-12-25 2014 330 NY Nyiregyhaza HNG eu KN07uw 621 386 106
2455951 2023-12-25 2012 330 ML Kraljevo SRB eu KN03hs 853 530 139
2455919 2023-12-25 2008 327 KHR Kavala / Megas Alexandros GRC eu KN20hw 1301 809 135
2455885 2023-12-25 1935 399 KMN Burgas / Kamenar BUL eu KN32tp 1331 827 121
2455904 2023-12-25 1927 400 MSW Munchen DEU eu JN58wi 100 210 130 220
2455874 2023-12-25 1922 320 RUM Innsbruck / Rum AUT eu JN57rg 328 204 211
2455961 2023-12-25 1918 317 PPD Poprad / Tatry SVK eu KN09eb 489 304 97
2455899 2023-12-25 1912 311 LMA Lima / Bruggen DEU eu JO31ei 25 545 339 291
2455882 2023-12-25 1858 284 GNA Gorna BUL eu KN23td 1173 729 124
2455901 2023-12-25 1839 372 NOR Nordholz DEU eu JO43js 30 555 345 324
2455900 2023-12-25 1251 369 MNE Munchen DEU eu JN58ui 25 218 135 222
2455891 2023-12-25 1248 365 L Karlovy Vary / Vrata CZE eu JO60le 68 42 308
2455876 2023-12-25 1242 358 TUN Tulln for Schwechat AUT eu JN78xh 234 145 134
2455890 2023-12-25 1240 345.5 CF Caslav / Chotusice / Centograf CZE eu JN79rv 126 78 85
2455962 2023-12-25 1234 330 OB Bratislava / M.R Stefanik / South SVK eu JN88pc 323 201 124
2455875 2023-12-25 1230 327 LNZ Linz / Horsching AUT eu JN78df 181 113 166
2455872 2023-12-25 1225 303 RTT Innsbruck / Rattenberg AUT eu JN57xk 294 182 206
2455889 2023-12-25 1223 300 KD Kbely / Praha East CZE eu JO70hd 75 47 60
2426097 2023-09-25 0418 389 PX Perigueux / Bassillac FRA eu JN05ke 25 1091 678 246
2426124 2023-09-25 0405 415 TOE Toulouse / Blagnac FRA eu JN03ul 15 1153 716 236
2426072 2023-09-25 0351 361 NB Bordeaux / Merignac FRA eu IN95rd 25 1187 738 249
2426016 2023-09-25 0336 290 ONL Liege / Bierset BEL eu JO20sq 15 588 366 282
2426018 2023-09-25 0334 293 OB Brussels National BEL eu JO20hw 656 407 284
2426082 2023-09-25 0331 372 OZN Prins Christian Sund / Kitaa GRL na GP80kb 3675 2283 310
2426094 2023-09-25 0321 387 AV Asturias / Aviles ESP eu IN73am 20 1649 1025 252
2426093 2023-09-25 0319 386.5 SLV Spa / La Sauveniere BEL eu JO20wl 15 563 350 280
2426102 2023-09-25 0315 395 OB Marseille / Provence FRA eu JN23tf 25 957 595 223
2426073 2023-09-24 0900 362 L Namest nad Oslavou CZE eu JN89cf 192 119 108
2426037 2023-09-24 0452 325 VG Zagreb / Pleso / Velika Gorica HRV eu JN85ar 486 302 158
2426134 2023-09-24 0452 425 DNC Mostar BIH eu JN83wd 100 807 501 155
2426009 2023-09-24 0451 277 CHT Chiltern ENG eu IO91ro 25 1021 635 286
2426010 2023-09-24 0443 280 ND Swidwin POL eu JO73ws 465 289 17
2426019 2023-09-24 0437 295 PT Skopje MKD eu KN01tv 50 1071 666 142
2426045 2023-09-24 0430 337 MY Myggenaes FRO eu IP62ec 1888 1173 324
2426061 2023-09-24 0429 352 LAA Niederrhein DEU eu JO31co 45 564 350 293
2426065 2023-09-24 0427 356 SGO Sagunto ESP eu IM99vq 300 1568 974 229
2426027 2023-09-24 0425 313 KI Klagenfurt AUT eu JN76ep 356 221 171
2426085 2023-09-24 0418 375 OO Oostende BEL eu JO11ke 781 485 285
2426086 2023-09-24 0415 377 SM Mora / Siljan SWE eu JP70ev 1233 766 1
2426087 2023-09-24 0412 378 WSN Weser DEU eu JO43ki 516 321 321
2426089 2023-09-24 0401 380 HO Colmar / Houssen FRA eu JN38qd 498 309 250
2426100 2023-09-24 0358 393 TAT Molde / Aro / Tautra NOR eu JP32kq 1490 926 346
2426123 2023-09-24 0349 414 GR Dubrovnik / Gruda HRV eu JN92dm 884 549 154
2426129 2023-09-24 0348 420 INN Innsbruck AUT eu JN57qf 40 335 208 211
2426130 2023-09-24 0344 421 MF Halmstad SWE eu JO66jp 762 474 355
2426127 2023-09-23 2101 418 ORA Oradea ROU eu KN07xc 678 421 113
2426131 2023-09-23 2051 422 OSJ Osijek HRV eu JN95lk 100 625 389 139
2426096 2023-09-23 1956 388.5 CDF Cardiff WLS eu IO81hj 10 1215 755 284
2426104 2023-09-23 1948 397 BLB Blois / Le Breuil FRA eu JN07oq 945 587 260
2426111 2023-09-23 1943 402 OP Brussels National BEL eu JO20hw 656 407 284
2426122 2023-09-23 1941 413 ALM Aix Les Milles FRA eu JN23qm 25 944 587 225
2426133 2023-09-23 1925 424 PHG Phalsbourg / Bourscheid FRA eu JN38os 485 301 258
2426132 2023-09-23 1921 423 ZO Nis / Zitoradja SRB eu KN03ue 957 594 137
2426014 2023-09-23 0237 285 LCF Linkoping / Malmen SWE eu JO78rh 952 591 6
2426128 2023-09-23 0227 419 RD Vasteras / Hasslo SWE eu JO89hm 1095 681 8
2426126 2023-09-23 0224 417 AH Angelholm / Barkakra SWE eu JO66kg 720 448 355
2426125 2023-09-23 0224 416 POZ Beograd / Pozarevac SRB eu KN04no 40 805 500 133
2426121 2023-09-23 0219 412 HUM Humac HRV eu JN83ig 763 474 161
2426120 2023-09-23 0216 410 SF Cherusti RUS eu LO05an 1873 1164 59
2426118 2023-09-23 0211 408 TSR Timisoara / Giarmata ROU eu KN05ol 739 459 127
2426119 2023-09-23 0208 409 SG Satenas / Tune SWE eu JO68ij 957 594 356
2426117 2023-09-23 0205 407 PN Palanga LTU eu KO05nx 846 526 33
2426116 2023-09-23 0200 406.5 BOT Bottrop DEU eu JO31mn 25 508 316 295
2426115 2023-09-23 0158 406 TW Toulouse / Blagnac FRA eu JN03mm 15 1191 740 238
2426114 2023-09-23 0155 405 JST Nis / Justic SRB eu KN03tk 50 931 578 136
2426113 2023-09-23 0151 404 LRD Lerida ESP eu JN01hn 250 1365 848 232
2426112 2023-09-23 0148 403 OJ Jonkoping SWE eu JO77aq 876 544 1
2426110 2023-09-23 0146 401 RBU Roros / Rambu NOR eu JP52sm 1419 882 355
2426109 2023-09-23 0142 400.5 COD Codogno (LO) ITA eu JN45sf 598 371 213
2426108 2023-09-23 0139 400 BRZ Rijeka / Krk / Breza HRV eu JN75ek 2000 489 304 173
2426107 2023-09-23 0137 399.5 ONO Oostende BEL eu JO11lf 25 775 482 285
2426106 2023-09-23 0136 399 KMN Burgas / Kamenar BUL eu KN32tp 1331 827 121
2426105 2023-09-23 0134 398 PEO Stockhlom / Skavsta / Peola SWE eu JO88mt 1023 636 10
2426103 2023-09-23 0132 396 YG Rygge / Enge NOR eu JO59ji 1077 669 351
2426101 2023-09-23 0128 394 DND Dundee SCT eu IO86kk 25 1338 831 309
2426099 2023-09-23 0127 391 OKR Bratislava / M.R Stefanik / North SVK eu JN88pf 2000 315 196 122
2426098 2023-09-23 0126 390 VAL Valjevo SRB eu JN94wh 769 478 140
2426095 2023-09-23 0122 388 COR Corner for Bromma SWE eu JO89rg 1079 670 11
2426092 2023-09-23 0120 385 AVN Vilnius LTU eu KO24pp 953 592 51
2426091 2023-09-23 0115 384 IAS Iasi ROU eu KN37td 1066 662 100
2426090 2023-09-23 0110 383 ERK Erken SWE eu JO99ev 1160 720 13
2426088 2023-09-23 0107 379 PIS Pisa (PI) ITA eu JN53do 25 738 458 201
2426084 2023-09-22 2133 374 KFT Klagenfurt AUT eu JN76go 362 225 169
2426083 2023-09-22 2132 373 KEM Kemi-Tornio / Hirmula FIN eu KP25hu 25 1891 1175 15
2426081 2023-09-22 2125 371 LEV Savigliano / Levaldigi (CN) ITA eu JN34tn 742 461 220
2426080 2023-09-22 2124 370 OTL Bucuresti / Otopeni ROU eu KN34an 1098 682 117
2426079 2023-09-22 2123 369 VRS Vrsar HRV eu JN65tf 510 317 180
2426078 2023-09-22 2122 368 WTD Waterford IRL eu IO62le 1470 914 288
2426077 2023-09-22 2121 367 VAT Chalon / Vatry FRA eu JN28at 709 440 264
2426076 2023-09-22 2120 366 KM Kalmar SWE eu JO86cr 787 489 11
2426075 2023-09-22 2118 365 RB Ajaccio / Campo del Oro COR eu JN41jw 954 593 205
2426074 2023-09-22 2113 363 CIG Izmir / Cigli / Kaklic TUR as KM38mm 25 1640 1019 134
2426070 2023-09-22 2109 360 O Oradea ROU eu KN07wb 675 419 113
2426071 2023-09-22 2109 360.5 MAK Mackel for Brussels Ntl BEL eu JO10rx 737 458 284
2426069 2023-09-22 2107 359 RK Cerklje SVN eu JN75qv 453 281 163
2426067 2023-09-22 2103 357.5 KG Sarajevo / Butmir / Kobiljaca BIH eu JN93cv 741 461 150
2426068 2023-09-22 2100 358 MSE Munchen DEU eu JN58th 25 225 140 223
2426066 2023-09-22 2056 357 KD Kolding / Vamdrup DNK eu JO45qk 690 429 336
2426064 2023-09-22 2051 355 OBR Beograd / Obrenovac SRB eu KN04bp 50 751 467 137
2426063 2023-09-22 2050 354 NG Nimes / Garons FRA eu JN23eu 25 970 603 230
2426062 2023-09-22 2048 353 KIL Kiel / Holtenau DEU eu JO54bi 25 561 349 335
2426060 2023-09-22 2046 351.5 PLA Pula HRV eu JN64vv 2000 547 340 179
2426058 2023-09-22 2045 350 DWN Devnya For Varna BUL eu KN33tf 1289 801 119
2426059 2023-09-22 2044 351 ISI Iasi ROU eu KN37sf 1057 657 100
2426057 2023-09-22 2042 349 OPE Bucuresti / Otopeni ROU eu KN34cn 1108 689 117
2426056 2023-09-22 2042 348 TPL Topola SRB eu KN04id 823 512 137
2426055 2023-09-22 2040 347 CVT Chalons / Vatry FRA eu JN28ds 692 430 263
2426054 2023-09-22 2038 346 LHO Le Havre / Octeville FRA eu JN09co 970 602 273
2426053 2023-09-22 2031 345.5 CF Caslav / Chotusice / Centograf CZE eu JN79rv 126 78 85
2426051 2023-09-22 2030 344 MN Menorca BAL eu JM29cu 200 1334 829 217
2426052 2023-09-22 2017 345 NB Malbork POL eu JO94oa 601 373 36
2426050 2023-09-22 2013 343 KUS Kaunas / Karmelava LTU eu KO24bx 100 909 565 46
2426049 2023-09-22 2013 342.5 NWI Norwich ENG eu JO02pq 5 920 572 295
2426048 2023-09-22 2011 341 ALG Memmingen / Allgau DEU eu JN57dx 322 200 232
2426046 2023-09-22 2009 338 OA Jonkoping SWE eu JO77bt 890 553 1
2426047 2023-09-22 2006 340 BLK Banja Luka BIH eu JN85pc 40 589 366 151
2426044 2023-09-22 1959 335 WCO Westcott ENG eu IO91mu 1053 654 288
2426043 2023-09-22 1955 334 MR Maribor SVN eu JN76vi 49 414 258 157
2426042 2023-09-22 1954 333 LE Vasteraas / Hasslo SWE eu JO89ip 1110 690 8
2426041 2023-09-22 1948 330 ZRA Zadar / Kakman HRV eu JN73rx 662 411 167
2426040 2023-09-22 1945 329 VX Vaxjo / Kronoberg SWE eu JO76iu 786 488 4
2426039 2023-09-22 1944 328 VJ Stauning DNK eu JO45fx 770 479 334
2426038 2023-09-22 1937 327 MVC Merville / Calonne FRA eu JO10hn 793 493 280
2426036 2023-09-22 1935 324 ON Norrkoping SWE eu JO88eo 993 617 8
2426035 2023-09-22 1934 323 ONC Charleroi / Gosselies BEL eu JO20gl 25 657 408 279
2426034 2023-09-22 1931 322 TLN Hyeres / Le Palyvestre FRA eu JN33ba 50 952 591 220
2426033 2023-09-22 1928 321 ABY Albert / Bray FRA eu JN19jx 781 486 275
2426032 2023-09-22 1925 320 VE Valence / Chabeuil FRA eu JN24lu 15 858 533 233
2426031 2023-09-22 1922 318 OTR Bucuresti / Otopeni ROU eu KN34co 1106 687 116
2426030 2023-09-22 1920 317 PPD Poprad / Tatry SVK eu KN09eb 489 304 97
2426029 2023-09-22 1917 316 TNJ Tounj HRV eu JN75qg 520 323 165
2426028 2023-09-22 1917 315 HOL Villacoublay / Velizy FRA eu JN08vr 25 872 542 266
2426026 2023-09-22 1915 312 BOZ Bozhurishte BUL eu KN12os 1069 664 133
2426025 2023-09-22 1913 311 LMA Lima / Bruggen DEU eu JO31ei 25 545 339 291
2426023 2023-09-22 1911 308 MOJ Mojkovac MNE eu JN92sw 40 885 550 147
2426024 2023-09-22 1909 309 DO Dole / Tavaux FRA eu JN26px 696 433 246
2426022 2023-09-22 1907 303 RTT Innsbruck / Rattenberg AUT eu JN57xk 294 182 206
2426021 2023-09-22 1904 301.5 TRE Treviso (TV) ITA eu JN65bo 25 483 300 194
2426020 2023-09-22 1901 300 PV Novi Sad / Cenej / Petrovaradin SRB eu JN95rd 675 419 138
2426017 2023-09-22 1852 292 NKR Neckar DEU eu JN49ii 25 364 226 263
2426015 2023-09-22 1850 289 RI Rijeka / Krk HRV eu JN75hd 523 325 172
2426013 2023-09-22 1844 284.5 DY Dusseldorf DEU eu JO31if 25 519 323 290
2426012 2023-09-22 1839 284 GNA Gorna BUL eu KN23td 1173 729 124
2426011 2023-09-22 1827 282 NF Minsk Mazowiecki / Faktor POL eu KO02ue 618 384 61
2426008 2023-09-22 1820 275 O UNID XUF xx
2419350 2023-08-28 0200 390 VAL Valjevo SRB eu JN94wh 769 478 140
2419302 2023-08-28 0156 334 MR Maribor SVN eu JN76vi 49 414 258 157
2419333 2023-08-28 0150 368 WTD Waterford IRL eu IO62le 1470 914 288
2419330 2023-08-28 0149 365 LJ Koln / Bonn DEU eu JO30mw 25 489 304 287
2419342 2023-08-28 0145 375 GLA Gland for Geneva / Cointrain SUI eu JN36cj 674 419 238
2419331 2023-08-28 0142 367 VAT Chalon / Vatry FRA eu JN28at 709 440 264
2419323 2023-08-28 0140 355 MI Maribor SVN eu JN76ul 75 399 248 157
2419319 2023-08-28 0136 352 LAA Niederrhein DEU eu JO31co 45 564 350 293
2419321 2023-08-28 0131 354 PAD Paderborn / Lippstadt DEU eu JO41ho 25 409 254 301
2419300 2023-08-28 0120 329 NMS Namsos NOR eu JP54vl 1635 1016 356
2419298 2023-08-28 0113 325 VG Zagreb / Pleso / Velika Gorica HRV eu JN85ar 486 302 158
2419297 2023-08-28 0058 322 TLN Hyeres / Le Palyvestre FRA eu JN33ba 50 952 591 220
2419295 2023-08-28 0055 321 ABY Albert / Bray FRA eu JN19jx 781 486 275
2419294 2023-08-28 0048 320 HA Hannover / East DEU eu JO42vl 25 403 250 318
2419296 2023-08-28 0044 322 RL La Rochelle / Ile De Re FRA eu IN96ke 1172 728 255
2419292 2023-08-28 0040 318 HIG Bremen DEU eu JO43kb 25 493 306 319
2419285 2023-08-28 0032 293 OB Brussels National BEL eu JO20hw 656 407 284
2419283 2023-08-28 0028 290 ONL Liege / Bierset BEL eu JO20sq 15 588 366 282
2419278 2023-08-28 0017 266 M Baia Mare ROU eu KN17rp 754 468 104
2419276 2023-08-28 0012 262 NR Inowroclaw POL eu JO92eu 468 291 41
2419289 2023-08-28 0004 312 BOZ Bozhurishte BUL eu KN12os 1069 664 133
2419287 2023-08-27 0154 311 LMA Lima / Bruggen DEU eu JO31ei 25 545 339 291
2419304 2023-08-27 0152 337 MY Myggenaes FRO eu IP62ec 1888 1173 324
2419375 2023-08-27 0148 438 PE Poprad / Tatry East SVK eu KN09fb 495 308 97
2419374 2023-08-27 0145 433 CRE Cres HRV eu JN74fv 40 550 341 173
2419372 2023-08-27 0142 428 TGM Targu Mures / Vidrasau ROU eu KN26dk 869 540 111
2419373 2023-08-27 0133 429 LOS Losinj HRV eu JN74fm 40 591 367 174
2419371 2023-08-27 0132 426 GBG Gleichenberg for Graz AUT eu JN76vv 100 359 223 153
2419368 2023-08-27 0127 424 PHG Phalsbourg / Bourscheid FRA eu JN38os 485 301 258
2419370 2023-08-27 0124 426 BC Bacau ROU eu KN36ll 1049 652 105
2419369 2023-08-27 0120 424 PIS Zagreb / Pleso / Pisarovina HRV eu JN75wo 495 308 160
2419367 2023-08-27 0116 423 ZO Nis / Zitoradja SRB eu KN03ue 957 594 137
2419366 2023-08-27 0110 422 OSJ Osijek HRV eu JN95lk 100 625 389 139
2419363 2023-08-27 0103 420 GO Podgorica MNE eu JN92ph 938 583 150
2419365 2023-08-27 0058 421 SAL Zadar / Sali HRV eu JN73ow 40 663 412 169
2419364 2023-08-27 0057 420 INN Innsbruck AUT eu JN57qf 40 335 208 211
2419362 2023-08-27 0053 419 RD Vasteras / Hasslo SWE eu JO89hm 1095 681 8
2419360 2023-08-27 0050 418 ORA Oradea ROU eu KN07xc 678 421 113
2419361 2023-08-27 0049 418 PW Poprad / Tatry West SVK eu KN09ab 465 289 97
2419359 2023-08-27 0049 418 DVN Split / Drvenik HRV eu JN83bk 732 455 164
2419358 2023-08-27 0046 417 AH Angelholm / Barkakra SWE eu JO66kg 720 448 355
2419357 2023-08-27 0040 409 SG Satenas / Tune SWE eu JO68ij 957 594 356
2419356 2023-08-27 0038 405 JST Nis / Justic SRB eu KN03tk 50 931 578 136
2419355 2023-08-27 0033 400.5 COD Codogno (LO) ITA eu JN45sf 598 371 213
2419354 2023-08-27 0032 400 BRZ Rijeka / Krk / Breza HRV eu JN75ek 2000 489 304 173
2419353 2023-08-26 0257 399 KMN Burgas / Kamenar BUL eu KN32tp 1331 827 121
2419352 2023-08-26 0250 396 RON Ronchi dei Legionari (GO) ITA eu JN65qt 25 445 277 183
2419349 2023-08-26 0247 388 BR Lyon / Bron FRA eu JN25lo 804 499 237
2419347 2023-08-26 0242 384 IAS Iasi ROU eu KN37td 1066 662 100
2419345 2023-08-26 0240 381 RG Rygge / Tune NOR eu JO59mh 1070 665 351
2419346 2023-08-26 0239 381 SIB Sibiu / Turnisor ROU eu KN25bs 897 558 116
2419344 2023-08-26 0236 380 HO Colmar / Houssen FRA eu JN38qd 498 309 250
2419343 2023-08-26 0233 378 WSN Weser DEU eu JO43ki 516 321 321
2419341 2023-08-26 0224 374 KFT Klagenfurt AUT eu JN76go 362 225 169
2419339 2023-08-26 0222 372 NOR Nordholz DEU eu JO43js 30 555 345 324
2419340 2023-08-26 0217 372 OZN Prins Christian Sund / Kitaa GRL na GP80kb 3675 2283 310
2419337 2023-08-26 0211 372 CE Osijek / Cepin HRV eu JN95gm 50 599 372 141
2419336 2023-08-26 0204 371 RIV Codroipo / Rivolto (UD) ITA eu JN65lw 434 270 187
2419335 2023-08-26 0159 370 OTL Bucuresti / Otopeni ROU eu KN34an 1098 682 117
2419334 2023-08-26 0152 369 VRS Vrsar HRV eu JN65tf 510 317 180
2419332 2023-08-26 0150 368 BYC Buckeburg DEU eu JO42ng 421 262 312
2419328 2023-08-26 0143 360 O Oradea ROU eu KN07wb 675 419 113
2419329 2023-08-26 0142 360.5 MAK Mackel for Brussels Ntl BEL eu JO10rx 737 458 284
2419326 2023-08-26 0137 356 SGO Sagunto ESP eu IM99vq 300 1568 974 229
2419317 2023-08-26 0135 350 SK Zagreb / Pleso / S. Kraljevec HRV eu JN85bt 480 298 157
2419325 2023-08-26 0133 355 ONW Antwerpen / Deurne BEL eu JO21ge 666 414 286
2419324 2023-08-26 0132 355 OBR Beograd / Obrenovac SRB eu KN04bp 50 751 467 137
2419320 2023-08-26 0127 354 MTZ Metz / Nancy-Lorraine FRA eu JN39cg 544 338 266
2419318 2023-08-26 0122 351 ISI Iasi ROU eu KN37sf 1057 657 100
2419315 2023-08-26 0120 349 OPE Bucuresti / Otopeni ROU eu KN34cn 1108 689 117
2419314 2023-08-26 0119 349 JX Vaxjo / Kronoberg SWE eu JO76jx 800 497 4
2419313 2023-08-26 0118 348 TPL Topola SRB eu KN04id 823 512 137
2419312 2023-08-26 0111 347 NQY Newquay ENG eu IO70mk 50 1329 826 280
2419311 2023-08-26 0058 345 TZO Trezzo sull'Adda (MI) ITA eu JN45sn 566 352 214
2419305 2023-08-26 0054 337 VRN Vranje SRB eu KN02wn 40 1021 634 139
2419293 2023-08-26 0052 318 OTR Bucuresti / Otopeni ROU eu KN34co 1106 687 116
2419291 2023-08-26 0048 317 PPD Poprad / Tatry SVK eu KN09eb 489 304 97
2419288 2023-08-26 0038 311 NSN Niederstetten DEU eu JN49xj 25 274 170 261
2419310 2023-08-26 0027 344 HN Hohn DEU eu JO44uh 25 570 354 332
2419309 2023-08-26 0020 343 KUS Kaunas / Karmelava LTU eu KO24bx 100 909 565 46
2419308 2023-08-26 0017 342.5 NWI Norwich ENG eu JO02pq 5 920 572 295
2419306 2023-08-26 0015 338 OA Jonkoping SWE eu JO77bt 890 553 1
2419303 2023-08-25 1958 335 FV Venev RUS eu KO94ci 1738 1080 63
2419322 2023-08-25 1939 355 ARB Ardabil IRN as LM48eh 3016 1874 101
2419316 2023-08-25 1935 350 DWN Devnya For Varna BUL eu KN33tf 1289 801 119
2419307 2023-08-25 1858 340 BLK Banja Luka BIH eu JN85pc 40 589 366 151
2419301 2023-08-25 1854 330 OB Bratislava / M.R Stefanik / South SVK eu JN88pc 323 201 124
2419290 2023-08-25 1851 316 TNJ Tounj HRV eu JN75qg 520 323 165
2419286 2023-08-25 1846 300 PV Novi Sad / Cenej / Petrovaradin SRB eu JN95rd 675 419 138
2419280 2023-08-25 1843 275 O UNID XUF xx
2419279 2023-08-25 1840 267.5 OPW Bucuresti / Otopeni ROU eu KN24xn 1092 679 117
2419277 2023-08-25 1835 265 KAV Pula / Kavran HRV eu JN74av 50 547 340 177
2419281 2023-08-25 1815 284 GNA Gorna BUL eu KN23td 1173 729 124
2419351 2023-08-25 1359 391 OKR Bratislava / M.R Stefanik / North SVK eu JN88pf 2000 315 196 122
2419348 2023-08-25 1356 385 NWT Leczyca POL eu JO91ox 455 282 55
2419338 2023-08-25 1351 372 L Prague / Ruzyne / Liboc CZE eu JO70dc 53 33 51
2419327 2023-08-25 1340 358 TUN Tulln for Schwechat AUT eu JN78xh 234 145 134
2419299 2023-08-25 1330 327 LNZ Linz / Horsching AUT eu JN78df 181 113 166
2419282 2023-08-25 1325 290 GRZ Graz AUT eu JN76rw 80 345 214 157
2419284 2023-08-25 1324 292 NKR Neckar DEU eu JN49ii 25 364 226 263
2411838 2023-07-31 0108 355 ONW Antwerpen / Deurne BEL eu JO21ge 666 414 286
2411864 2023-07-31 0049 364 NW Stockholm / Skavsta / Nykoping SWE eu JO88js 1016 631 10
2411876 2023-07-31 0037 369 NL Goteborg / Landvetter SWE eu JO67er 885 550 354
2411852 2023-07-31 0019 360 BD Bogdanovo RUS eu KO87uc 1771 1100 53
2411853 2023-07-31 0017 360 LA Kraljevo SRB eu KN03gu 841 523 139
2411826 2023-07-31 0004 352 NT Newcastle ENG eu IO95eb 90 1188 738 305
2411871 2023-07-28 0151 367.5 OX Oxford / Kidlington ENG eu IO91it 1075 668 287
2411868 2023-07-28 0146 365 RB Ajaccio / Campo del Oro COR eu JN41jw 954 593 205
2411858 2023-07-28 0144 362 BVK Orsta-Volda / Hovden / Baatvik NOR eu JP22vf 1463 909 343
2411851 2023-07-28 0140 359 RWY Isle Of Man / Ronaldsway IOM eu IO74qb 20 1338 831 297
2411843 2023-07-28 0133 357 KD Kolding / Vamdrup DNK eu JO45qk 690 429 336
2411845 2023-07-28 0128 357.5 KG Sarajevo / Butmir / Kobiljaca BIH eu JN93cv 741 461 150
2411842 2023-07-28 0122 356 WBA Wolverhampton ENG eu IO82um 1153 716 291
2411839 2023-07-28 0116 355 PIK Prestwick SCT eu IO75rm 1379 857 304
2411835 2023-07-28 0106 355 ARB Ardabil IRN as LM48eh 3016 1874 101
2411834 2023-07-28 0104 354 PP Pamplona ESP eu IN92du 1410 876 242
2411825 2023-07-28 0100 352 LAA Niederrhein DEU eu JO31co 45 564 350 293
2411856 2023-07-28 0057 360.5 MAK Mackel for Brussels Ntl BEL eu JO10rx 737 458 284
2411855 2023-07-28 0055 360 TS Zadonsk RUS eu KO92lj 1777 1104 71
2411860 2023-07-28 0050 362 RU Sevastopol - Belbek UKR eu KN64tq 1602 995 103
2411850 2023-07-28 0046 359 RK Cerklje SVN eu JN75qv 453 281 163
2411846 2023-07-28 0041 358 HW Hannover / West DEU eu JO42sl 25 415 258 317
2411841 2023-07-28 0035 356 SGO Sagunto ESP eu IM99vq 300 1568 974 229
2411840 2023-07-28 0031 356 CVU Castres / Mazamet FRA eu JN13cp 1111 690 236
2411837 2023-07-28 0027 355 OBR Beograd / Obrenovac SRB eu KN04bp 50 751 467 137
2411827 2023-07-28 0024 352 SL UNID XUU xx
2411829 2023-07-28 0020 353 OBA Oseberg A platform XOE iw JP10jl 1370 851 334
2411828 2023-07-28 0018 353 KIL Kiel / Holtenau DEU eu JO54bi 25 561 349 335
2411820 2023-07-28 0015 350 UK Yukhnov RUS eu KO74or 1554 966 61
2411823 2023-07-27 2200 351 SBH Sumburgh Head SHE eu IO99iv 1469 913 325
2411821 2023-07-27 2138 351 BSC Brive / Souillac FRA eu JN05ta 1052 654 244
2411833 2023-07-27 2133 354 PAD Paderborn / Lippstadt DEU eu JO41ho 25 409 254 301
2411832 2023-07-27 2125 354 NG Nimes / Garons FRA eu JN23eu 25 970 603 230
2411830 2023-07-27 2122 353 SB St. Brieuc / Armor FRA eu IN88on 1205 748 269
2411831 2023-07-27 2113 354 MTZ Metz / Nancy-Lorraine FRA eu JN39cg 544 338 266
2411836 2023-07-27 2108 355 MI Maribor SVN eu JN76ul 75 399 248 157
2411874 2023-07-27 2104 369 CM Avignon / Caumont FRA eu JN23kv 25 939 583 228
2411877 2023-07-27 2044 369 VRS Vrsar HRV eu JN65tf 510 317 180
2411873 2023-07-27 2041 368 TLB Toulouse / Blagnac FRA eu JN03rw 1135 705 239
2411872 2023-07-27 2037 368 BYC Buckeburg DEU eu JO42ng 421 262 312
2411870 2023-07-27 2031 367 VAT Chalon / Vatry FRA eu JN28at 709 440 264
2411869 2023-07-27 2023 366 KM Kalmar SWE eu JO86cr 787 489 11
2411867 2023-07-27 2022 365 LJ Koln / Bonn DEU eu JO30mw 25 489 304 287
2411865 2023-07-27 2020 364 PU Pau / Pyrenees FRA eu IN93uh 1288 800 241
2411863 2023-07-27 2015 363 PI Poitiers / Biard FRA eu JN06eq 50 1045 649 255
2411862 2023-07-27 2014 363 OEM Kristianstad / Everod SWE eu JO75bx 686 426 2
2411861 2023-07-27 2011 363 CIG Izmir / Cigli / Kaklic TUR as KM38mm 25 1640 1019 134
2411854 2023-07-27 2007 360 O Oradea ROU eu KN07wb 675 419 113
2411857 2023-07-27 2003 361 NB Bordeaux / Merignac FRA eu IN95rd 25 1187 738 249
2411849 2023-07-27 1959 359 LOR Lorient / Lann Bihoue FRA eu IN87gs 100 1275 792 266
2411822 2023-07-27 1956 351 ISI Iasi ROU eu KN37sf 1057 657 100
2411824 2023-07-27 1955 351.5 PLA Pula HRV eu JN64vv 2000 547 340 179
2411819 2023-07-27 1940 350 DWN Devnya For Varna BUL eu KN33tf 1289 801 119
2411875 2023-07-27 1219 369 MNE Munchen DEU eu JN58ui 25 218 135 222
2411866 2023-07-27 1216 365 L Karlovy Vary / Vrata CZE eu JO60le 68 42 308
2411859 2023-07-27 1214 362 L Namest nad Oslavou CZE eu JN89cf 192 119 108
2411848 2023-07-27 1210 358 TUN Tulln for Schwechat AUT eu JN78xh 234 145 134
2411847 2023-07-27 1208 358 MSE Munchen DEU eu JN58th 25 225 140 223
2411844 2023-07-27 1205 357 SKZ Leipzig / Halle DEU eu JO61dj 202 126 330
2404715 2023-06-26 0123 328 BLK Blackbushe ENG eu IO91nh 1042 647 284
2404717 2023-06-26 0120 328 VJ Stauning DNK eu JO45fx 770 479 334
2404716 2023-06-26 0113 328 HIG San Sebastian ESP eu IN93cj 200 1378 856 244
2404730 2023-06-26 0100 334 DX Dax / Seyresse FRA eu IN93lq 1311 814 244
2404721 2023-06-26 0055 330 MB Montbeliard / Courcelles FRA eu JN37lm 557 346 245
2404711 2023-06-26 0049 326 C Debrecen HNG eu KN07tl 636 395 111
2404709 2023-06-26 0043 325 AST Asturias ESP eu IN63xn 1652 1027 252
2404719 2023-06-26 0037 329 VX Vaxjo / Kronoberg SWE eu JO76iu 786 488 4
2404729 2023-06-26 0027 333 LE Vasteraas / Hasslo SWE eu JO89ip 1110 690 8
2404726 2023-06-26 0022 332 RO Tivat MNE eu JN92gk 900 559 153
2404710 2023-06-26 0018 325 VG Zagreb / Pleso / Velika Gorica HRV eu JN85ar 486 302 158
2404707 2023-06-26 0014 324 ON Norrkoping SWE eu JO88eo 993 617 8
2404701 2023-06-26 0005 321 VO Vojens / Skrydstrup DNK eu JO45pf 672 418 335
2404698 2023-06-26 0001 320 TY Troyes / Barberey FRA eu JN28aj 721 448 261
2404724 2023-06-25 0054 330 ZRA Zadar / Kakman HRV eu JN73rx 662 411 167
2404722 2023-06-25 0051 330 ML Kraljevo SRB eu KN03hs 853 530 139
2404712 2023-06-25 0043 326 DD Ivanovo / Yuzhny RUS eu LO06mw 1962 1219 55
2404725 2023-06-25 0034 331 GST Gloucester ENG eu IO81vv 12 1139 707 287
2404718 2023-06-25 0020 329 JW Jersey JSY eu IN89ve 1149 714 272
2404705 2023-06-25 0015 323 AB Albi / Le Sequestre FRA eu JN13av 1102 685 237
2404703 2023-06-25 0010 322 ORS Orleans / St Denis De L'Hotel FRA eu JN17cw 865 538 260
2404706 2023-06-24 0046 323 ONC Charleroi / Gosselies BEL eu JO20gl 25 657 408 279
2404700 2023-06-24 0041 321 TL Tarbes / Ossun / Lourdes FRA eu JN03ag 100 1270 789 240
2404728 2023-06-24 0030 332.5 CAM Cambridge ENG eu JO02cf 980 609 291
2404731 2023-06-24 0028 334 MR Maribor SVN eu JN76vi 49 414 258 157
2404702 2023-06-24 0023 322 NG Powidz POL eu JO82wi 406 252 44
2404727 2023-06-24 0017 332 TLF Toulouse / Francazal FRA eu JN03oo 1174 730 238
2404723 2023-06-24 0012 330 OB Bratislava / M.R Stefanik / South SVK eu JN88pc 323 201 124
2404708 2023-06-23 2353 324 RF Ladozhskaya RUS eu KN95xg 2023 1257 94
2404695 2023-06-23 2340 320 DM Moscow / Domodedovo RUS eu KO85wk 1736 1079 59
2404714 2023-06-23 2312 327 MVC Merville / Calonne FRA eu JO10hn 793 493 280
2404697 2023-06-23 2249 320 RUM Innsbruck / Rum AUT eu JN57rg 328 204 211
2404699 2023-06-23 2207 321 ABY Albert / Bray FRA eu JN19jx 781 486 275
2404704 2023-06-23 2156 322 TLN Hyeres / Le Palyvestre FRA eu JN33ba 50 952 591 220
2404696 2023-06-23 2152 320 HA Hannover / East DEU eu JO42vl 25 403 250 318
2404720 2023-06-23 1350 330 ABU Altenburg / Nobitz DEU eu JO60gx 25 154 96 327
2404713 2023-06-23 1338 327 LNZ Linz / Horsching AUT eu JN78df 181 113 166
2401163 2023-05-29 0220 427 BRU Braunschweig DEU eu JO52hh 352 218 323
2401162 2023-05-29 0217 399.5 ONO Oostende BEL eu JO11lf 25 775 482 285
2401161 2023-05-29 0214 394 LYE Lubeck / Blanckensee DEU eu JO53it 490 305 336
2401160 2023-05-29 0201 393 EMW East Midlands ENG eu IO92gt 15 1103 685 293
2401159 2023-05-29 0158 386 BZ Brize Norton ENG eu IO91er 50 1097 682 287
2401158 2023-05-29 0156 378 WSN Weser DEU eu JO43ki 516 321 321
2401157 2023-05-29 0154 375 EKO Ekofisk L XOE iw JO16on 1024 636 321
2401156 2023-05-29 0152 373 NW Maastricht / Beek HOL eu JO21wa 15 571 355 286
2401155 2023-05-29 0147 372 NOR Nordholz DEU eu JO43js 30 555 345 324
2401154 2023-05-29 0144 371 STR Sintra POR eu IM58hv 2186 1358 245
2401153 2023-05-29 0140 362.5 SND Southend-On-Sea ENG eu JO01in 25 935 581 286
2401152 2023-05-29 0138 353.5 EME East Midlands ENG eu IO92jt 25 1087 675 293
2401151 2023-05-29 0133 337 MY Myggenaes FRO eu IP62ec 1888 1173 324
2401150 2023-05-29 0133 337 EX Exeter ENG eu IO80is 1210 752 281
2401149 2023-05-29 0129 332.5 CAM Cambridge ENG eu JO02cf 980 609 291
2401148 2023-05-29 0125 322 TLN Hyeres / Le Palyvestre FRA eu JN33ba 50 952 591 220
2401147 2023-05-29 0108 316 EPM Epsom for Heathrow ENG eu IO91th 25 1007 626 284
2401146 2023-05-29 0053 303 RTT Innsbruck / Rattenberg AUT eu JN57xk 294 182 206
2401145 2023-05-29 0049 289 RI Rijeka / Krk HRV eu JN75hd 523 325 172
2395022 2023-04-24 0147 424 RUS Reus ESP eu JN01nd 200 1372 852 230
2395002 2023-04-24 0138 256 BSE Baneasa Southeast ROU eu KN34cm 1111 690 117
2395013 2023-04-24 0118 422 CNK Canakkale TUR as KN30fd 1466 911 132
2395035 2023-04-24 0040 429 LIO Limnos GRC eu KM29ow 1420 882 136
2395003 2023-04-24 0020 258 N Ostrava / Mosnov / Nada CZE eu JN99br 317 197 89
2395001 2023-04-23 1922 255 NS Nis SRB eu KN03vh 950 590 136
2395048 2023-04-22 0203 433.5 HEN Henton ENG eu IO91os 25 1040 646 287
2395043 2023-04-22 0158 431 SAY Stornoway SCT eu IO68uf 1597 992 313
2395039 2023-04-22 0151 430 LU Batumi GEO as LN01to 2335 1451 102
2395015 2023-04-22 0148 423 CWL Cranwell ENG eu IO93sa 5 1043 648 295
2395009 2023-04-22 0141 421 BUR Burnham ENG eu IO91pm 1032 641 286
2395007 2023-04-22 0133 420 LMT Auch / Lamothe FRA eu JN03hr 1202 747 240
2395004 2023-04-22 0119 420 GO Podgorica MNE eu JN92ph 938 583 150
2395008 2023-04-22 0115 421 BL Borlange / Rommehed / Falun SWE eu JP70ql 1191 740 4
2395060 2023-04-21 2341 438 PE Poprad / Tatry East SVK eu KN09fb 495 308 97
2395017 2023-04-21 2325 423 TS Toulouse / Blagnac FRA eu JN03rm 15 1165 724 237
2395019 2023-04-21 2317 424 LOE Limoges / Bellegarde FRA eu JN06qa 1010 627 250
2395020 2023-04-21 2311 424 PHG Phalsbourg / Bourscheid FRA eu JN38os 485 301 258
2395026 2023-04-21 2308 426 CTS Castets FRA eu IN93kw 1300 808 245
2395031 2023-04-21 2300 427 RY Royan / Medis FRA eu IN95no 1185 736 252
2395032 2023-04-21 2249 428 CTX Chateauroux / Deols FRA eu JN06vw 50 935 581 254
2395040 2023-04-21 2242 430 MB Chemukha RUS eu LO15vo 2107 1309 60
2395045 2023-04-21 2233 432 PRD Peyrehorade FRA eu IN93km 1327 825 243
2395047 2023-04-21 2228 433 MI Ermolino RUS eu KO85hf 1654 1028 59
2395051 2023-04-21 2223 435 ER Yegorlykskaya RUS eu LN06io 2021 1256 89
2395059 2023-04-21 2219 438 OR Kirov / Pobedilovo RUS eu LO48oh 2466 1532 53
2395061 2023-04-21 2213 438 XA Kirov RUS eu LO48ql 2478 1540 53
2395058 2023-04-21 2210 438 KO Rijeka / Krk / Kozala HRV eu JN75fi 499 310 173
2395057 2023-04-21 2205 438 K Praha Kbely / Kalda CZE eu JO70gd 70 44 57
2395056 2023-04-21 2151 438 B Bratislava / M.R Stefanik / Barka SVK eu JN88od 316 196 124
2395010 2023-04-21 2147 421 GE Madrid / Grinon ESP eu IN80be 1741 1082 238
2395055 2023-04-21 2139 437 NP Tomaszow-Mazowiecki / Porter POL eu KO01bn 492 306 64
2395054 2023-04-21 2132 436 SME Sarmellek / Balaton HNG eu JN86op 437 272 142
2395053 2023-04-21 2122 436 S Darlowo POL eu JO84ej 541 336 18
2395052 2023-04-21 2118 435 KI UNID - Chkalovskij ? XUE xx
2395050 2023-04-21 2114 435 BR Brdjani SRB eu KN03fw 830 516 139
2395049 2023-04-21 2112 434 KNE Kunovice CZE eu JN89rb 284 176 105
2395046 2023-04-21 2109 433 CRE Cres HRV eu JN74fv 40 550 341 173
2395044 2023-04-21 2102 432 PK Pardubice / Prvek CZE eu JO70va 151 94 80
2395042 2023-04-21 2059 431 KBA Karlsruhe / Baden Baden DEU eu JN48bt 420 261 256
2395041 2023-04-21 2057 430 SN St Yan FRA eu JN26bh 811 504 244
2395038 2023-04-21 2054 430 AJ Staritza RUS eu KO76lm 1592 989 53
2395037 2023-04-21 2043 429 OBI Oberpfaffenhofen DEU eu JN58pb 263 163 223
2395036 2023-04-21 2036 429 LOS Losinj HRV eu JN74fm 40 591 367 174
2395034 2023-04-21 2034 429 B Brno / Turany / Borek CZE eu JN89id 229 142 107
2395033 2023-04-21 2031 428 TGM Targu Mures / Vidrasau ROU eu KN26dk 869 540 111
2395029 2023-04-21 2030 427 BRU Braunschweig DEU eu JO52hh 352 218 323
2395030 2023-04-21 2024 427 LUE Kramfors / Lunde SWE eu JP82vv 1476 917 8
2395028 2023-04-21 2016 426 MIQ Mike for Ingolstadt DEU eu JN58tn 206 128 228
2395027 2023-04-21 2013 426 GBG Gleichenberg for Graz AUT eu JN76vv 100 359 223 153
2395025 2023-04-21 2010 426 BC Bacau ROU eu KN36ll 1049 652 105
2395024 2023-04-21 1951 425 KE Kosice SVK eu KN08oo 561 348 100
2395023 2023-04-21 1950 425 DNC Mostar BIH eu JN83wd 100 807 501 155
2395021 2023-04-21 1941 424 PIS Zagreb / Pleso / Pisarovina HRV eu JN75wo 495 308 160
2395018 2023-04-21 1934 423 ZO Nis / Zitoradja SRB eu KN03ue 957 594 137
2395016 2023-04-21 1932 423 FE Odense / Beldringe DNK eu JO55fm 671 417 342
2395014 2023-04-21 1925 422 OSJ Osijek HRV eu JN95lk 100 625 389 139
2395012 2023-04-21 1921 421 SAL Zadar / Sali HRV eu JN73ow 40 663 412 169
2395011 2023-04-21 1920 421 MF Halmstad SWE eu JO66jp 762 474 355
2395005 2023-04-21 1915 420 GS Pula HRV eu JN64wv 547 340 178
2395006 2023-04-21 1913 420 INN Innsbruck AUT eu JN57qf 40 335 208 211
2388712 2023-03-27 0122 266 M Baia Mare ROU eu KN17rp 754 468 104
2388762 2023-03-26 2142 830 W Ulyanovsk / Vostochny RUS eu LO44kk 2428 1509 64
2388730 2023-03-26 2100 474.5 SA Darlowo POL eu JO84ek 545 339 18
2388717 2023-03-26 2054 445 WS Starokonstantinov UKR eu KN39pr 974 605 85
2388716 2023-03-26 2050 445 CG Pribylovo RUS eu KP40ik 1511 939 32
2388722 2023-03-26 2032 456 SEG Szeged HNG eu KN06bg 618 384 127
2388715 2023-03-26 2027 444 NRD Inowroclaw POL eu JO92eu 468 291 41
2388755 2023-03-26 0245 662 SM Smolenskaya RUS eu KN94js 1962 1219 96
2388753 2023-03-26 0229 659 DO Moscow / Domodedovo RUS eu KO85xi 1739 1081 59
2388727 2023-03-26 0202 470 BK UNID XUF xx
2388729 2023-03-26 0155 470 WF Wafa LBY af JL58bv 2345 1457 188
2388721 2023-03-26 0142 452 LB Balandino RSE as MO05rh 3218 2000 60
2388718 2023-03-26 0132 450 PAD Parsabade / Moghan IRN as LM39xn 2906 1805 99
2388714 2023-03-26 0119 440 BHL UNID XUU xx
2388713 2023-03-25 2200 267.5 OPW Bucuresti / Otopeni ROU eu KN24xn 1092 679 117
2388723 2023-03-25 2138 458 LP Chernyakhovsk KAL eu KO04vo 765 476 42
2388758 2023-03-25 2123 730 AL Kaliningrad / Chkalovsk KAL eu KO04es 713 443 36
2388743 2023-03-25 2022 515 NV Rostov Na Donu RUS eu KN97tg 1919 1192 88
2388728 2023-03-25 2002 470 UZ Uzice / Ponikve SRB eu JN93wu 811 504 142
2388726 2023-03-25 2000 468 VTN Kraljevo / Vitanovac SRB eu KN03jr 50 864 537 138
2388719 2023-03-25 1939 450 PDV Plovdiv BUL eu KN22ka 1221 759 130
2388724 2023-03-25 1939 463 CL Cerklje SVN eu JN75rv 455 282 162
2388720 2023-03-24 2356 452 ANS Ansbach DEU eu JN59hh 229 142 257
2388731 2023-03-24 2351 477 RP Malacky - Kuchyna SVK eu JN88nl 289 180 119
2388732 2023-03-24 2348 478 MF Larionovo RUS eu KO96ta 1856 1153 58
2388733 2023-03-24 2343 485 CW Krasnaya Gorbatka RUS eu LO05uu 1981 1231 59
2388734 2023-03-24 2342 485 IA Indija SRB eu KN05ab 60 711 442 135
2388736 2023-03-24 2339 488 NPR Tomaszow-Mazowiecki / Porter POL eu KO01bn 492 306 64
2388737 2023-03-24 2337 489 SIL Siegen / Siegerland DEU eu JO40bq 25 409 254 285
2388739 2023-03-24 2334 493 RW Maryino RUS eu KO95cq 1762 1095 58
2388740 2023-03-24 2331 495 PA Pancevo SRB eu KN04hv 50 755 469 133
2388741 2023-03-24 2324 508 Z Zilina / Hlinik SVK eu JN99hf 361 224 98
2388745 2023-03-24 2320 520 B Bacau ROU eu KN36kn 1039 646 105
2388746 2023-03-24 2318 520 DF Mukhrani GEO as LN21gv 2523 1568 98
2388747 2023-03-24 2312 520 NW Leczyca POL eu JO91ox 455 282 55
2388748 2023-03-24 2304 521 BSW Bucuresti / Baneasa ROU eu KN24xl 1098 682 118
2388744 2023-03-24 2256 517 ARD Arad ROU eu KN06ne 683 424 123
2388749 2023-03-24 2251 534 R Ostrava / Mosnov / Rada CZE eu JN99bq 318 197 90
2388752 2023-03-24 2246 571 P Presov / Kapusany SVK eu KN09qb 560 348 95
2388751 2023-03-24 2237 570 DO UNID XUE xx
2388754 2023-03-24 2229 659 LL Bucuresti / Otopeni ROU eu KN34an 1098 682 117
2388756 2023-03-24 2220 682 RD Rostov-na-Donu / Platov RUS eu KN97wl 1930 1199 87
2388759 2023-03-24 2202 732 AO Aksinyino RUS eu KO95dd 1756 1091 60
2388760 2023-03-24 2158 745 BG Karmanovo RUS eu KO75ku 1564 972 56
2388761 2023-03-24 2146 752 BB Beryozovo RSE as MP23lv 3365 2091 42
2388763 2023-03-24 2142 840 KR Kaliningrad / Khrabovo KAL eu KO04iv 738 458 37
2388764 2023-03-24 2138 876 WG Volgograd / Gumrak RUS eu LN28ds 2205 1370 81
2388766 2023-03-24 2131 930 L Chernyakhovsk KAL eu KO04vo 765 476 42
2388767 2023-03-24 2127 932 KR Krasnoarmeysk RUS eu LO21tb 2247 1396 74
2388768 2023-03-24 2118 985 FK Gagarin RUS eu KO75mn 1565 973 57
2388769 2023-03-24 2110 1005 LO Klimovsk RUS eu KO85si 1714 1065 59
2388770 2023-03-24 2101 1020 DK Glotayevo RUS eu KO85vd 1725 1072 60
2388771 2023-03-24 2034 1055 IN Sukhotino RUS eu KO84po 1683 1046 62
2388772 2023-03-24 2024 1080 AR Buzharovo RUS eu KO85jx 1683 1046 57
2388773 2023-03-24 2022 1100 KA Konstaninovsk RUS eu LN07no 2015 1252 86
2388774 2023-03-24 2017 1215 WT Kartino RUS eu KO85vo 1735 1078 59
2388775 2023-03-24 2012 1285 SW Savelovo RUS eu KO86ri 1733 1077 56
2388776 2023-03-24 1958 1290 TU Bely RUS eu KO65lu 1450 901 55
2388711 2023-03-24 1956 265 KAV Pula / Kavran HRV eu JN74av 50 547 340 177
2388765 2023-03-24 1445 888 P Pardubice CZE eu JO70va 151 94 80
2388757 2023-03-24 1441 715 C Caslav CZE eu JN79rw 126 78 83
2388750 2023-03-24 1439 563 XU Namest Nad Oslavou CZE eu JN89ae 182 113 111
2388742 2023-03-24 1417 514.5 LA Namest Nad Oslavou CZE eu JN89cd 195 121 111
2388735 2023-03-24 1413 488 ILM Illesheim DEU eu JN59el 243 151 262
2388738 2023-03-24 1411 490 WAK Vakarel BUL eu KN12un 1113 691 132
2388725 2023-03-24 1405 468 FTZ Fritzlar DEU eu JO41pc 25 344 214 296
2388710 2023-03-24 1350 262 NR Inowroclaw POL eu JO92eu 468 291 41
2382099 2023-02-26 0249 319 ECV Colmenar Viejo ESP eu IN80cq 50 1698 1055 239
2382092 2023-02-26 0245 317 VS Valenciennes / Denain FRA eu JO10qi 739 459 278
2382089 2023-02-26 0240 316 OE Dublin IRL eu IO63sk 1444 897 293